sensor_id;sensor_type;location;lat;lon;timestamp;P1;durP1;ratioP1;P2;durP2;ratioP2
6424;SDS011;12193;42.642;23.384;2023-02-26T00:01:53;15.07;;;4.40;;
6424;SDS011;12193;42.642;23.384;2023-02-26T00:04:27;9.70;;;4.83;;
6424;SDS011;12193;42.642;23.384;2023-02-26T00:06:56;16.87;;;4.63;;
6424;SDS011;12193;42.642;23.384;2023-02-26T00:09:28;13.60;;;4.60;;
6424;SDS011;12193;42.642;23.384;2023-02-26T00:11:59;15.60;;;4.70;;
6424;SDS011;12193;42.642;23.384;2023-02-26T00:14:29;7.33;;;3.20;;
6424;SDS011;12193;42.642;23.384;2023-02-26T00:17:06;13.17;;;4.57;;
6424;SDS011;12193;42.642;23.384;2023-02-26T00:19:51;16.37;;;4.67;;
6424;SDS011;12193;42.642;23.384;2023-02-26T00:22:21;12.63;;;4.70;;
6424;SDS011;12193;42.642;23.384;2023-02-26T00:24:53;15.60;;;4.80;;
6424;SDS011;12193;42.642;23.384;2023-02-26T00:27:23;14.03;;;4.80;;
6424;SDS011;12193;42.642;23.384;2023-02-26T00:29:53;10.93;;;4.57;;
6424;SDS011;12193;42.642;23.384;2023-02-26T00:32:23;14.43;;;4.93;;
6424;SDS011;12193;42.642;23.384;2023-02-26T00:34:53;15.33;;;4.13;;
6424;SDS011;12193;42.642;23.384;2023-02-26T00:37:35;12.77;;;4.13;;
6424;SDS011;12193;42.642;23.384;2023-02-26T00:40:20;12.27;;;4.37;;
6424;SDS011;12193;42.642;23.384;2023-02-26T00:42:57;13.37;;;5.13;;
6424;SDS011;12193;42.642;23.384;2023-02-26T00:45:27;14.17;;;4.33;;
6424;SDS011;12193;42.642;23.384;2023-02-26T00:48:01;11.13;;;4.33;;
6424;SDS011;12193;42.642;23.384;2023-02-26T00:50:45;14.10;;;4.10;;
6424;SDS011;12193;42.642;23.384;2023-02-26T00:53:23;12.63;;;4.23;;
6424;SDS011;12193;42.642;23.384;2023-02-26T00:56:01;12.83;;;4.00;;
6424;SDS011;12193;42.642;23.384;2023-02-26T00:58:31;9.93;;;4.73;;
6424;SDS011;12193;42.642;23.384;2023-02-26T01:01:00;13.33;;;3.93;;
6424;SDS011;12193;42.642;23.384;2023-02-26T01:03:30;10.87;;;4.13;;
6424;SDS011;12193;42.642;23.384;2023-02-26T01:06:00;12.43;;;4.57;;
6424;SDS011;12193;42.642;23.384;2023-02-26T03:58:41;15.57;;;3.60;;
6424;SDS011;12193;42.642;23.384;2023-02-26T04:01:21;14.70;;;3.60;;
6424;SDS011;12193;42.642;23.384;2023-02-26T04:03:54;7.83;;;3.10;;
6424;SDS011;12193;42.642;23.384;2023-02-26T04:06:27;14.03;;;3.80;;
6424;SDS011;12193;42.642;23.384;2023-02-26T04:08:57;15.90;;;3.90;;
6424;SDS011;12193;42.642;23.384;2023-02-26T04:11:27;19.67;;;3.93;;
6424;SDS011;12193;42.642;23.384;2023-02-26T04:14:00;12.03;;;3.60;;
6424;SDS011;12193;42.642;23.384;2023-02-26T04:16:30;9.20;;;2.90;;
6424;SDS011;12193;42.642;23.384;2023-02-26T04:18:59;11.97;;;3.33;;
6424;SDS011;12193;42.642;23.384;2023-02-26T04:21:29;13.50;;;3.90;;
6424;SDS011;12193;42.642;23.384;2023-02-26T04:23:58;9.90;;;3.13;;
6424;SDS011;12193;42.642;23.384;2023-02-26T04:26:28;13.70;;;3.40;;
6424;SDS011;12193;42.642;23.384;2023-02-26T04:28:57;9.67;;;3.30;;
6424;SDS011;12193;42.642;23.384;2023-02-26T04:31:29;11.10;;;3.63;;
6424;SDS011;12193;42.642;23.384;2023-02-26T04:33:59;18.83;;;3.67;;
6424;SDS011;12193;42.642;23.384;2023-02-26T04:36:28;13.47;;;3.37;;
6424;SDS011;12193;42.642;23.384;2023-02-26T04:38:58;19.60;;;4.00;;
6424;SDS011;12193;42.642;23.384;2023-02-26T04:41:27;10.90;;;3.40;;
6424;SDS011;12193;42.642;23.384;2023-02-26T04:43:56;12.93;;;3.20;;
6424;SDS011;12193;42.642;23.384;2023-02-26T04:46:26;14.43;;;3.27;;
6424;SDS011;12193;42.642;23.384;2023-02-26T04:48:58;15.27;;;4.00;;
6424;SDS011;12193;42.642;23.384;2023-02-26T04:51:27;17.47;;;4.10;;
6424;SDS011;12193;42.642;23.384;2023-02-26T04:53:57;10.67;;;3.50;;
6424;SDS011;12193;42.642;23.384;2023-02-26T04:56:26;14.37;;;3.47;;
6424;SDS011;12193;42.642;23.384;2023-02-26T04:58:56;17.70;;;3.70;;
6424;SDS011;12193;42.642;23.384;2023-02-26T05:01:26;12.87;;;3.40;;
6424;SDS011;12193;42.642;23.384;2023-02-26T05:03:58;12.00;;;5.20;;
6424;SDS011;12193;42.642;23.384;2023-02-26T05:06:28;8.33;;;3.57;;
6424;SDS011;12193;42.642;23.384;2023-02-26T05:08:57;13.93;;;3.60;;
6424;SDS011;12193;42.642;23.384;2023-02-26T05:11:27;9.67;;;3.30;;
6424;SDS011;12193;42.642;23.384;2023-02-26T05:13:56;20.40;;;4.00;;
6424;SDS011;12193;42.642;23.384;2023-02-26T05:16:25;11.33;;;3.20;;
6424;SDS011;12193;42.642;23.384;2023-02-26T05:18:57;15.60;;;3.33;;
6424;SDS011;12193;42.642;23.384;2023-02-26T05:21:28;18.37;;;4.10;;
6424;SDS011;12193;42.642;23.384;2023-02-26T05:23:57;15.13;;;4.20;;
6424;SDS011;12193;42.642;23.384;2023-02-26T05:26:26;15.30;;;4.10;;
6424;SDS011;12193;42.642;23.384;2023-02-26T05:28:56;10.83;;;3.47;;
6424;SDS011;12193;42.642;23.384;2023-02-26T05:31:25;13.57;;;3.50;;
6424;SDS011;12193;42.642;23.384;2023-02-26T05:33:57;18.97;;;3.90;;
6424;SDS011;12193;42.642;23.384;2023-02-26T05:36:27;13.77;;;3.40;;
6424;SDS011;12193;42.642;23.384;2023-02-26T05:38:56;14.87;;;3.60;;
6424;SDS011;12193;42.642;23.384;2023-02-26T05:41:25;16.23;;;5.00;;
6424;SDS011;12193;42.642;23.384;2023-02-26T05:43:55;17.40;;;3.97;;
6424;SDS011;12193;42.642;23.384;2023-02-26T05:46:24;9.80;;;3.70;;
6424;SDS011;12193;42.642;23.384;2023-02-26T05:48:53;14.63;;;3.67;;
6424;SDS011;12193;42.642;23.384;2023-02-26T05:51:26;23.07;;;4.27;;
6424;SDS011;12193;42.642;23.384;2023-02-26T05:53:55;16.13;;;3.90;;
6424;SDS011;12193;42.642;23.384;2023-02-26T05:56:24;12.63;;;3.57;;
6424;SDS011;12193;42.642;23.384;2023-02-26T05:58:54;15.90;;;4.23;;
6424;SDS011;12193;42.642;23.384;2023-02-26T06:01:23;13.50;;;3.60;;
6424;SDS011;12193;42.642;23.384;2023-02-26T06:03:53;13.07;;;3.67;;
6424;SDS011;12193;42.642;23.384;2023-02-26T06:06:25;19.27;;;4.13;;
6424;SDS011;12193;42.642;23.384;2023-02-26T06:08:54;18.73;;;4.07;;
6424;SDS011;12193;42.642;23.384;2023-02-26T06:11:26;14.67;;;3.70;;
6424;SDS011;12193;42.642;23.384;2023-02-26T06:13:55;19.47;;;4.80;;
6424;SDS011;12193;42.642;23.384;2023-02-26T06:16:24;24.17;;;4.27;;
6424;SDS011;12193;42.642;23.384;2023-02-26T06:18:54;19.40;;;4.10;;
6424;SDS011;12193;42.642;23.384;2023-02-26T06:21:26;14.93;;;3.60;;
6424;SDS011;12193;42.642;23.384;2023-02-26T06:23:56;17.57;;;4.23;;
6424;SDS011;12193;42.642;23.384;2023-02-26T06:26:25;11.83;;;3.47;;
6424;SDS011;12193;42.642;23.384;2023-02-26T06:28:55;15.00;;;3.50;;
6424;SDS011;12193;42.642;23.384;2023-02-26T06:31:25;20.53;;;4.00;;
6424;SDS011;12193;42.642;23.384;2023-02-26T06:33:54;9.57;;;3.40;;
6424;SDS011;12193;42.642;23.384;2023-02-26T06:36:26;14.13;;;3.47;;
6424;SDS011;12193;42.642;23.384;2023-02-26T06:38:55;15.87;;;3.50;;
6424;SDS011;12193;42.642;23.384;2023-02-26T06:41:25;20.17;;;4.43;;
6424;SDS011;12193;42.642;23.384;2023-02-26T06:43:54;20.17;;;4.20;;
6424;SDS011;12193;42.642;23.384;2023-02-26T06:46:23;16.07;;;3.53;;
6424;SDS011;12193;42.642;23.384;2023-02-26T06:48:52;17.83;;;4.50;;
6424;SDS011;12193;42.642;23.384;2023-02-26T06:51:22;15.27;;;4.13;;
6424;SDS011;12193;42.642;23.384;2023-02-26T06:53:54;12.17;;;3.37;;
6424;SDS011;12193;42.642;23.384;2023-02-26T06:56:23;16.17;;;3.70;;
6424;SDS011;12193;42.642;23.384;2023-02-26T06:58:53;17.20;;;4.93;;
6424;SDS011;12193;42.642;23.384;2023-02-26T07:01:22;20.93;;;3.83;;
6424;SDS011;12193;42.642;23.384;2023-02-26T07:03:51;10.47;;;3.20;;
6424;SDS011;12193;42.642;23.384;2023-02-26T07:06:21;12.50;;;3.37;;
6424;SDS011;12193;42.642;23.384;2023-02-26T07:08:50;20.93;;;3.63;;
6424;SDS011;12193;42.642;23.384;2023-02-26T07:11:22;11.57;;;2.93;;
6424;SDS011;12193;42.642;23.384;2023-02-26T07:13:52;14.10;;;3.60;;
6424;SDS011;12193;42.642;23.384;2023-02-26T07:16:21;31.70;;;4.20;;
6424;SDS011;12193;42.642;23.384;2023-02-26T07:18:51;25.73;;;4.87;;
6424;SDS011;12193;42.642;23.384;2023-02-26T07:21:20;13.67;;;3.50;;
6424;SDS011;12193;42.642;23.384;2023-02-26T07:23:49;16.00;;;3.40;;
6424;SDS011;12193;42.642;23.384;2023-02-26T07:26:21;16.37;;;3.97;;
6424;SDS011;12193;42.642;23.384;2023-02-26T07:28:50;12.53;;;3.43;;
6424;SDS011;12193;42.642;23.384;2023-02-26T07:31:20;11.37;;;3.13;;
6424;SDS011;12193;42.642;23.384;2023-02-26T07:33:50;11.40;;;3.53;;
6424;SDS011;12193;42.642;23.384;2023-02-26T07:36:19;21.63;;;3.43;;
6424;SDS011;12193;42.642;23.384;2023-02-26T07:38:49;16.10;;;4.13;;
6424;SDS011;12193;42.642;23.384;2023-02-26T07:41:20;16.53;;;3.73;;
6424;SDS011;12193;42.642;23.384;2023-02-26T07:43:50;12.73;;;3.07;;
6424;SDS011;12193;42.642;23.384;2023-02-26T07:46:19;21.40;;;4.53;;
6424;SDS011;12193;42.642;23.384;2023-02-26T07:48:49;16.97;;;3.50;;
6424;SDS011;12193;42.642;23.384;2023-02-26T07:51:18;22.77;;;4.23;;
6424;SDS011;12193;42.642;23.384;2023-02-26T07:53:47;12.03;;;3.13;;
6424;SDS011;12193;42.642;23.384;2023-02-26T07:56:16;18.33;;;4.80;;
6424;SDS011;12193;42.642;23.384;2023-02-26T07:58:48;16.97;;;3.63;;
6424;SDS011;12193;42.642;23.384;2023-02-26T08:01:18;18.83;;;4.43;;
6424;SDS011;12193;42.642;23.384;2023-02-26T08:03:47;12.87;;;3.40;;
6424;SDS011;12193;42.642;23.384;2023-02-26T08:06:17;18.43;;;4.00;;
6424;SDS011;12193;42.642;23.384;2023-02-26T08:08:46;14.97;;;3.70;;
6424;SDS011;12193;42.642;23.384;2023-02-26T08:11:15;18.33;;;3.60;;
6424;SDS011;12193;42.642;23.384;2023-02-26T08:13:45;23.17;;;4.50;;
6424;SDS011;12193;42.642;23.384;2023-02-26T08:16:17;31.03;;;4.77;;
6424;SDS011;12193;42.642;23.384;2023-02-26T08:18:46;15.40;;;3.73;;
6424;SDS011;12193;42.642;23.384;2023-02-26T08:21:15;19.30;;;3.23;;
6424;SDS011;12193;42.642;23.384;2023-02-26T08:23:45;22.13;;;4.10;;
6424;SDS011;12193;42.642;23.384;2023-02-26T08:26:14;14.50;;;3.40;;
6424;SDS011;12193;42.642;23.384;2023-02-26T08:28:44;12.40;;;3.70;;
6424;SDS011;12193;42.642;23.384;2023-02-26T08:31:16;21.17;;;4.13;;
6424;SDS011;12193;42.642;23.384;2023-02-26T08:33:46;14.90;;;3.73;;
6424;SDS011;12193;42.642;23.384;2023-02-26T08:36:15;25.83;;;4.37;;
6424;SDS011;12193;42.642;23.384;2023-02-26T08:38:46;15.53;;;3.47;;
6424;SDS011;12193;42.642;23.384;2023-02-26T08:41:16;19.63;;;3.90;;
6424;SDS011;12193;42.642;23.384;2023-02-26T08:43:45;18.67;;;3.80;;
6424;SDS011;12193;42.642;23.384;2023-02-26T08:46:18;21.07;;;3.93;;
6424;SDS011;12193;42.642;23.384;2023-02-26T08:48:47;17.87;;;4.20;;
6424;SDS011;12193;42.642;23.384;2023-02-26T08:51:17;20.63;;;4.77;;
6424;SDS011;12193;42.642;23.384;2023-02-26T08:53:47;17.00;;;3.93;;
6424;SDS011;12193;42.642;23.384;2023-02-26T08:56:17;13.00;;;2.90;;
6424;SDS011;12193;42.642;23.384;2023-02-26T08:58:46;15.30;;;3.73;;
6424;SDS011;12193;42.642;23.384;2023-02-26T09:01:19;14.70;;;3.47;;
6424;SDS011;12193;42.642;23.384;2023-02-26T09:03:48;14.03;;;4.07;;
6424;SDS011;12193;42.642;23.384;2023-02-26T09:06:18;12.77;;;3.00;;
6424;SDS011;12193;42.642;23.384;2023-02-26T09:08:47;19.57;;;4.00;;
6424;SDS011;12193;42.642;23.384;2023-02-26T09:11:17;24.37;;;4.10;;
6424;SDS011;12193;42.642;23.384;2023-02-26T09:13:46;18.60;;;4.07;;
6424;SDS011;12193;42.642;23.384;2023-02-26T09:16:16;15.00;;;4.40;;
6424;SDS011;12193;42.642;23.384;2023-02-26T09:18:47;9.27;;;3.23;;
6424;SDS011;12193;42.642;23.384;2023-02-26T09:21:17;16.07;;;4.03;;
6424;SDS011;12193;42.642;23.384;2023-02-26T09:23:46;22.97;;;4.17;;
6424;SDS011;12193;42.642;23.384;2023-02-26T09:26:16;29.07;;;3.97;;
6424;SDS011;12193;42.642;23.384;2023-02-26T09:28:45;25.20;;;4.53;;
6424;SDS011;12193;42.642;23.384;2023-02-26T09:31:15;18.87;;;3.80;;
6424;SDS011;12193;42.642;23.384;2023-02-26T09:33:47;17.23;;;4.13;;
6424;SDS011;12193;42.642;23.384;2023-02-26T09:36:16;15.03;;;3.30;;
6424;SDS011;12193;42.642;23.384;2023-02-26T09:38:46;22.93;;;4.50;;
6424;SDS011;12193;42.642;23.384;2023-02-26T09:41:16;18.77;;;3.37;;
6424;SDS011;12193;42.642;23.384;2023-02-26T09:46:43;15.40;;;3.57;;
6424;SDS011;12193;42.642;23.384;2023-02-26T09:49:22;20.63;;;4.27;;
6424;SDS011;12193;42.642;23.384;2023-02-26T09:51:59;13.27;;;3.50;;
6424;SDS011;12193;42.642;23.384;2023-02-26T09:54:36;11.83;;;3.03;;
6424;SDS011;12193;42.642;23.384;2023-02-26T09:57:11;14.20;;;2.87;;
6424;SDS011;12193;42.642;23.384;2023-02-26T09:59:49;25.60;;;4.27;;
6424;SDS011;12193;42.642;23.384;2023-02-26T10:02:19;22.87;;;3.83;;
6424;SDS011;12193;42.642;23.384;2023-02-26T10:04:56;13.13;;;3.53;;
6424;SDS011;12193;42.642;23.384;2023-02-26T10:07:34;16.80;;;3.23;;
6424;SDS011;12193;42.642;23.384;2023-02-26T10:10:14;18.27;;;3.90;;
6424;SDS011;12193;42.642;23.384;2023-02-26T10:12:50;15.83;;;3.50;;
6424;SDS011;12193;42.642;23.384;2023-02-26T10:15:21;10.27;;;3.40;;
6424;SDS011;12193;42.642;23.384;2023-02-26T10:17:56;21.53;;;3.63;;
6424;SDS011;12193;42.642;23.384;2023-02-26T10:20:36;18.17;;;3.70;;
6424;SDS011;12193;42.642;23.384;2023-02-26T10:23:14;16.00;;;3.70;;
6424;SDS011;12193;42.642;23.384;2023-02-26T10:25:48;9.80;;;3.70;;
6424;SDS011;12193;42.642;23.384;2023-02-26T10:28:27;15.77;;;3.93;;
6424;SDS011;12193;42.642;23.384;2023-02-26T10:31:05;14.70;;;3.87;;
6424;SDS011;12193;42.642;23.384;2023-02-26T10:33:43;14.40;;;3.40;;
6424;SDS011;12193;42.642;23.384;2023-02-26T10:36:21;13.20;;;3.70;;
6424;SDS011;12193;42.642;23.384;2023-02-26T10:38:55;21.97;;;4.20;;
6424;SDS011;12193;42.642;23.384;2023-02-26T10:41:29;15.07;;;3.90;;
6424;SDS011;12193;42.642;23.384;2023-02-26T10:44:05;12.57;;;3.90;;
6424;SDS011;12193;42.642;23.384;2023-02-26T10:46:42;17.47;;;4.40;;
6424;SDS011;12193;42.642;23.384;2023-02-26T10:49:24;16.80;;;3.70;;
6424;SDS011;12193;42.642;23.384;2023-02-26T10:52:15;8.70;;;2.87;;
6424;SDS011;12193;42.642;23.384;2023-02-26T10:54:47;9.00;;;3.13;;
6424;SDS011;12193;42.642;23.384;2023-02-26T10:57:28;15.33;;;3.40;;
6424;SDS011;12193;42.642;23.384;2023-02-26T11:00:00;11.07;;;3.90;;
6424;SDS011;12193;42.642;23.384;2023-02-26T11:02:32;10.47;;;3.57;;
6424;SDS011;12193;42.642;23.384;2023-02-26T11:05:06;11.80;;;2.83;;
6424;SDS011;12193;42.642;23.384;2023-02-26T11:07:47;11.37;;;3.70;;
6424;SDS011;12193;42.642;23.384;2023-02-26T11:10:19;12.03;;;3.90;;
6424;SDS011;12193;42.642;23.384;2023-02-26T11:12:52;8.63;;;2.90;;
6424;SDS011;12193;42.642;23.384;2023-02-26T11:15:22;8.07;;;3.03;;
6424;SDS011;12193;42.642;23.384;2023-02-26T11:17:55;12.27;;;3.20;;
6424;SDS011;12193;42.642;23.384;2023-02-26T11:20:29;12.90;;;3.30;;
6424;SDS011;12193;42.642;23.384;2023-02-26T11:23:05;13.40;;;3.17;;
6424;SDS011;12193;42.642;23.384;2023-02-26T11:25:38;8.50;;;3.10;;
6424;SDS011;12193;42.642;23.384;2023-02-26T11:28:17;13.23;;;3.30;;
6424;SDS011;12193;42.642;23.384;2023-02-26T11:30:48;15.73;;;3.40;;
6424;SDS011;12193;42.642;23.384;2023-02-26T11:33:21;11.30;;;3.20;;
6424;SDS011;12193;42.642;23.384;2023-02-26T11:35:54;13.33;;;3.50;;
6424;SDS011;12193;42.642;23.384;2023-02-26T11:38:30;9.73;;;3.40;;
6424;SDS011;12193;42.642;23.384;2023-02-26T11:41:01;15.73;;;3.50;;
6424;SDS011;12193;42.642;23.384;2023-02-26T11:43:34;12.60;;;3.53;;
6424;SDS011;12193;42.642;23.384;2023-02-26T11:46:06;15.93;;;3.50;;
6424;SDS011;12193;42.642;23.384;2023-02-26T11:48:38;13.47;;;3.77;;
6424;SDS011;12193;42.642;23.384;2023-02-26T11:51:11;10.93;;;3.60;;
6424;SDS011;12193;42.642;23.384;2023-02-26T11:53:47;16.50;;;3.60;;
6424;SDS011;12193;42.642;23.384;2023-02-26T11:56:22;10.83;;;3.37;;
6424;SDS011;12193;42.642;23.384;2023-02-26T11:58:54;11.27;;;3.67;;
6424;SDS011;12193;42.642;23.384;2023-02-26T12:01:28;11.70;;;3.17;;
6424;SDS011;12193;42.642;23.384;2023-02-26T12:03:59;10.87;;;2.87;;
6424;SDS011;12193;42.642;23.384;2023-02-26T12:06:29;14.47;;;4.10;;
6424;SDS011;12193;42.642;23.384;2023-02-26T12:09:02;14.43;;;4.37;;
6424;SDS011;12193;42.642;23.384;2023-02-26T12:11:38;19.37;;;4.07;;
6424;SDS011;12193;42.642;23.384;2023-02-26T12:14:22;12.30;;;3.17;;
6424;SDS011;12193;42.642;23.384;2023-02-26T12:17:05;21.03;;;4.33;;
6424;SDS011;12193;42.642;23.384;2023-02-26T12:19:45;12.87;;;4.10;;
6424;SDS011;12193;42.642;23.384;2023-02-26T12:22:26;17.47;;;4.60;;
6424;SDS011;12193;42.642;23.384;2023-02-26T12:31:24;12.57;;;3.53;;
6424;SDS011;12193;42.642;23.384;2023-02-26T12:34:20;16.70;;;4.00;;
6424;SDS011;12193;42.642;23.384;2023-02-26T12:37:03;18.70;;;5.50;;
6424;SDS011;12193;42.642;23.384;2023-02-26T12:39:50;16.43;;;4.53;;
6424;SDS011;12193;42.642;23.384;2023-02-26T12:42:31;20.80;;;5.60;;
6424;SDS011;12193;42.642;23.384;2023-02-26T12:51:05;20.50;;;4.67;;
6424;SDS011;12193;42.642;23.384;2023-02-26T12:53:49;21.80;;;4.90;;
6424;SDS011;12193;42.642;23.384;2023-02-26T12:56:42;16.10;;;4.57;;
6424;SDS011;12193;42.642;23.384;2023-02-26T12:59:28;19.27;;;4.47;;
6424;SDS011;12193;42.642;23.384;2023-02-26T13:02:20;18.73;;;4.93;;
6424;SDS011;12193;42.642;23.384;2023-02-26T13:08:10;16.03;;;4.50;;
6424;SDS011;12193;42.642;23.384;2023-02-26T13:10:46;15.33;;;4.30;;
6424;SDS011;12193;42.642;23.384;2023-02-26T13:13:31;19.00;;;4.67;;
6424;SDS011;12193;42.642;23.384;2023-02-26T13:16:20;15.37;;;5.30;;
6424;SDS011;12193;42.642;23.384;2023-02-26T13:19:02;16.77;;;5.07;;
6424;SDS011;12193;42.642;23.384;2023-02-26T13:21:41;21.30;;;5.93;;
6424;SDS011;12193;42.642;23.384;2023-02-26T13:24:13;22.00;;;5.87;;
6424;SDS011;12193;42.642;23.384;2023-02-26T13:26:48;20.10;;;6.30;;
6424;SDS011;12193;42.642;23.384;2023-02-26T13:29:20;16.90;;;5.27;;
6424;SDS011;12193;42.642;23.384;2023-02-26T13:31:57;23.23;;;5.50;;
6424;SDS011;12193;42.642;23.384;2023-02-26T13:34:34;19.60;;;4.57;;
6424;SDS011;12193;42.642;23.384;2023-02-26T13:37:09;22.80;;;4.90;;
6424;SDS011;12193;42.642;23.384;2023-02-26T13:39:48;24.33;;;5.37;;
6424;SDS011;12193;42.642;23.384;2023-02-26T13:42:27;19.33;;;4.57;;
6424;SDS011;12193;42.642;23.384;2023-02-26T13:45:10;18.63;;;4.97;;
6424;SDS011;12193;42.642;23.384;2023-02-26T13:48:03;17.27;;;5.07;;
6424;SDS011;12193;42.642;23.384;2023-02-26T13:50:41;25.93;;;4.60;;
6424;SDS011;12193;42.642;23.384;2023-02-26T13:53:34;23.60;;;4.77;;
6424;SDS011;12193;42.642;23.384;2023-02-26T13:56:20;20.13;;;4.70;;
6424;SDS011;12193;42.642;23.384;2023-02-26T14:05:09;21.03;;;4.87;;
6424;SDS011;12193;42.642;23.384;2023-02-26T14:10:55;22.93;;;5.13;;
6424;SDS011;12193;42.642;23.384;2023-02-26T14:13:32;20.00;;;4.90;;
6424;SDS011;12193;42.642;23.384;2023-02-26T14:16:09;19.87;;;4.93;;
6424;SDS011;12193;42.642;23.384;2023-02-26T14:18:40;30.07;;;5.67;;
6424;SDS011;12193;42.642;23.384;2023-02-26T14:21:37;21.67;;;5.07;;
6424;SDS011;12193;42.642;23.384;2023-02-26T14:24:13;25.37;;;6.80;;
6424;SDS011;12193;42.642;23.384;2023-02-26T14:26:45;24.30;;;6.20;;
6424;SDS011;12193;42.642;23.384;2023-02-26T14:29:19;30.20;;;6.27;;
6424;SDS011;12193;42.642;23.384;2023-02-26T14:31:56;23.57;;;5.67;;
6424;SDS011;12193;42.642;23.384;2023-02-26T14:34:33;17.47;;;4.67;;
6424;SDS011;12193;42.642;23.384;2023-02-26T14:37:10;23.73;;;5.27;;
6424;SDS011;12193;42.642;23.384;2023-02-26T14:39:42;25.17;;;5.30;;
6424;SDS011;12193;42.642;23.384;2023-02-26T14:42:16;22.03;;;5.57;;
6424;SDS011;12193;42.642;23.384;2023-02-26T14:44:50;24.10;;;5.33;;
6424;SDS011;12193;42.642;23.384;2023-02-26T14:47:24;32.10;;;6.17;;
6424;SDS011;12193;42.642;23.384;2023-02-26T14:49:54;27.40;;;5.30;;
6424;SDS011;12193;42.642;23.384;2023-02-26T14:55:28;30.63;;;7.83;;
6424;SDS011;12193;42.642;23.384;2023-02-26T14:58:25;28.57;;;6.50;;
6424;SDS011;12193;42.642;23.384;2023-02-26T15:01:07;28.20;;;6.87;;
6424;SDS011;12193;42.642;23.384;2023-02-26T15:06:49;30.10;;;6.33;;
6424;SDS011;12193;42.642;23.384;2023-02-26T15:09:36;35.73;;;6.10;;
6424;SDS011;12193;42.642;23.384;2023-02-26T15:12:19;26.53;;;5.70;;
6424;SDS011;12193;42.642;23.384;2023-02-26T15:15:06;28.70;;;5.97;;
6424;SDS011;12193;42.642;23.384;2023-02-26T15:18:09;30.00;;;5.40;;
6424;SDS011;12193;42.642;23.384;2023-02-26T15:20:52;26.77;;;5.83;;
6424;SDS011;12193;42.642;23.384;2023-02-26T15:23:35;25.77;;;6.80;;
6424;SDS011;12193;42.642;23.384;2023-02-26T15:26:15;26.70;;;6.00;;
6424;SDS011;12193;42.642;23.384;2023-02-26T15:28:47;35.80;;;6.47;;
6424;SDS011;12193;42.642;23.384;2023-02-26T15:31:19;35.00;;;6.00;;
6424;SDS011;12193;42.642;23.384;2023-02-26T15:33:55;27.73;;;6.90;;
6424;SDS011;12193;42.642;23.384;2023-02-26T15:36:27;28.73;;;6.57;;
6424;SDS011;12193;42.642;23.384;2023-02-26T15:38:58;18.30;;;5.33;;
6424;SDS011;12193;42.642;23.384;2023-02-26T15:41:31;24.23;;;6.53;;
6424;SDS011;12193;42.642;23.384;2023-02-26T15:44:02;19.57;;;6.50;;
6424;SDS011;12193;42.642;23.384;2023-02-26T15:46:36;20.33;;;6.90;;
6424;SDS011;12193;42.642;23.384;2023-02-26T15:49:08;26.63;;;6.50;;
6424;SDS011;12193;42.642;23.384;2023-02-26T15:51:43;22.80;;;6.17;;
6424;SDS011;12193;42.642;23.384;2023-02-26T15:54:14;21.03;;;5.03;;
6424;SDS011;12193;42.642;23.384;2023-02-26T15:56:50;18.93;;;5.77;;
6424;SDS011;12193;42.642;23.384;2023-02-26T15:59:20;19.30;;;5.00;;
6424;SDS011;12193;42.642;23.384;2023-02-26T16:01:53;18.50;;;4.83;;
6424;SDS011;12193;42.642;23.384;2023-02-26T16:04:22;22.93;;;5.80;;
6424;SDS011;12193;42.642;23.384;2023-02-26T16:06:53;23.40;;;5.93;;
6424;SDS011;12193;42.642;23.384;2023-02-26T16:09:25;24.73;;;6.00;;
6424;SDS011;12193;42.642;23.384;2023-02-26T16:11:59;26.43;;;5.77;;
6424;SDS011;12193;42.642;23.384;2023-02-26T16:14:33;25.40;;;5.60;;
6424;SDS011;12193;42.642;23.384;2023-02-26T16:17:05;17.77;;;5.47;;
6424;SDS011;12193;42.642;23.384;2023-02-26T16:19:39;27.43;;;6.23;;
6424;SDS011;12193;42.642;23.384;2023-02-26T16:22:13;24.27;;;6.03;;
6424;SDS011;12193;42.642;23.384;2023-02-26T16:24:48;24.73;;;6.43;;
6424;SDS011;12193;42.642;23.384;2023-02-26T16:27:30;27.13;;;7.73;;
6424;SDS011;12193;42.642;23.384;2023-02-26T16:30:01;21.20;;;6.50;;
6424;SDS011;12193;42.642;23.384;2023-02-26T16:32:32;23.83;;;6.70;;
6424;SDS011;12193;42.642;23.384;2023-02-26T16:35:08;20.27;;;6.57;;
6424;SDS011;12193;42.642;23.384;2023-02-26T16:37:42;36.60;;;7.60;;
6424;SDS011;12193;42.642;23.384;2023-02-26T16:40:16;28.83;;;7.40;;
6424;SDS011;12193;42.642;23.384;2023-02-26T16:42:59;22.27;;;6.67;;
6424;SDS011;12193;42.642;23.384;2023-02-26T16:45:42;17.17;;;6.37;;
6424;SDS011;12193;42.642;23.384;2023-02-26T16:48:20;21.90;;;7.30;;
6424;SDS011;12193;42.642;23.384;2023-02-26T16:50:55;27.07;;;6.83;;
6424;SDS011;12193;42.642;23.384;2023-02-26T16:53:30;27.37;;;6.20;;
6424;SDS011;12193;42.642;23.384;2023-02-26T16:56:03;22.33;;;6.13;;
6424;SDS011;12193;42.642;23.384;2023-02-26T16:58:36;33.60;;;9.83;;
6424;SDS011;12193;42.642;23.384;2023-02-26T17:01:07;18.33;;;6.00;;
6424;SDS011;12193;42.642;23.384;2023-02-26T17:03:41;26.50;;;6.50;;
6424;SDS011;12193;42.642;23.384;2023-02-26T17:06:16;31.33;;;8.03;;
6424;SDS011;12193;42.642;23.384;2023-02-26T17:08:46;32.40;;;8.07;;
6424;SDS011;12193;42.642;23.384;2023-02-26T17:11:19;23.07;;;6.83;;
6424;SDS011;12193;42.642;23.384;2023-02-26T17:16:44;25.47;;;6.40;;
6424;SDS011;12193;42.642;23.384;2023-02-26T17:19:14;19.77;;;5.70;;
6424;SDS011;12193;42.642;23.384;2023-02-26T17:21:45;24.57;;;6.67;;
6424;SDS011;12193;42.642;23.384;2023-02-26T17:24:19;18.60;;;6.20;;
6424;SDS011;12193;42.642;23.384;2023-02-26T17:26:53;23.50;;;7.00;;
6424;SDS011;12193;42.642;23.384;2023-02-26T17:29:26;32.73;;;7.63;;
6424;SDS011;12193;42.642;23.384;2023-02-26T17:31:59;28.03;;;7.30;;
6424;SDS011;12193;42.642;23.384;2023-02-26T17:34:29;28.43;;;7.07;;
6424;SDS011;12193;42.642;23.384;2023-02-26T17:36:58;27.13;;;8.17;;
6424;SDS011;12193;42.642;23.384;2023-02-26T17:39:30;24.53;;;7.57;;
6424;SDS011;12193;42.642;23.384;2023-02-26T17:42:00;26.13;;;8.03;;
6424;SDS011;12193;42.642;23.384;2023-02-26T17:44:32;31.97;;;7.37;;
6424;SDS011;12193;42.642;23.384;2023-02-26T17:47:01;29.10;;;8.20;;
6424;SDS011;12193;42.642;23.384;2023-02-26T17:49:31;28.70;;;9.20;;
6424;SDS011;12193;42.642;23.384;2023-02-26T17:52:00;36.63;;;8.50;;
6424;SDS011;12193;42.642;23.384;2023-02-26T17:54:29;25.80;;;8.80;;
6424;SDS011;12193;42.642;23.384;2023-02-26T17:56:59;34.90;;;9.07;;
6424;SDS011;12193;42.642;23.384;2023-02-26T17:59:28;33.63;;;8.63;;
6424;SDS011;12193;42.642;23.384;2023-02-26T18:02:01;27.30;;;7.80;;
6424;SDS011;12193;42.642;23.384;2023-02-26T18:04:30;30.67;;;8.63;;
6424;SDS011;12193;42.642;23.384;2023-02-26T18:06:59;30.57;;;8.37;;
6424;SDS011;12193;42.642;23.384;2023-02-26T18:09:29;28.17;;;9.00;;
6424;SDS011;12193;42.642;23.384;2023-02-26T18:11:58;35.60;;;9.13;;
6424;SDS011;12193;42.642;23.384;2023-02-26T18:14:28;34.20;;;9.33;;
6424;SDS011;12193;42.642;23.384;2023-02-26T18:17:00;29.50;;;8.70;;
6424;SDS011;12193;42.642;23.384;2023-02-26T18:19:29;24.30;;;7.63;;
6424;SDS011;12193;42.642;23.384;2023-02-26T18:21:58;33.20;;;7.80;;
6424;SDS011;12193;42.642;23.384;2023-02-26T18:24:28;26.80;;;7.87;;
6424;SDS011;12193;42.642;23.384;2023-02-26T18:26:57;26.73;;;6.93;;
6424;SDS011;12193;42.642;23.384;2023-02-26T18:29:26;30.40;;;7.50;;
6424;SDS011;12193;42.642;23.384;2023-02-26T18:31:55;25.67;;;6.87;;
6424;SDS011;12193;42.642;23.384;2023-02-26T18:34:30;34.23;;;7.60;;
6424;SDS011;12193;42.642;23.384;2023-02-26T18:37:00;27.90;;;7.43;;
6424;SDS011;12193;42.642;23.384;2023-02-26T18:39:30;36.90;;;7.57;;